^^
Saratoga-Weather Station Historical Data
Daily Summary for November 15, 2020 Units:  Both    English   Metric
Daily Weekly Monthly Yearly Custom
  High: Low: Average:
Temperature: 62.1 °F /  16.7 °C 45.3 °F /  7.4 °C 52.5 °F /  11.4 °C
Dew Point: 54.5 °F /  12.5 °C 44.6 °F /  7 °C 49.5 °F /  9.7 °C
Humidity: 98% 70% 90%
Wind Speed: 17.9mph /  28.8km/h - 1.9mph /  3.1km/h
Wind Gust: 18mph /  29km/h - -
Wind- - SSE
Pressure: 30 in /  1014.9 hPa 29.7 in /  1004.7 hPa -
Precipitation: 0.28 in /  7.1 mm    
Historical Graphs
 
 
Tabular Data for November 15, 2020
Time Temperature Dew Point Pressure Wind Wind Speed Wind Gust Humidity Rainfall Rate (Hourly) solar
00:01 46.9 °F /  8.3 °C 46.2 °F /  7.9 °C 30in /  1014.9hPa Calm     97% 0in /  0.0mm 0 W/m2
00:06 46.9 °F /  8.3 °C 46.2 °F /  7.9 °C 30in /  1014.9hPa Calm     97% 0in /  0.0mm 0 W/m2
00:11 46.8 °F /  8.2 °C 46 °F /  7.8 °C 30in /  1014.9hPa Calm     97% 0in /  0.0mm 0 W/m2
00:16 46.8 °F /  8.2 °C 46 °F /  7.8 °C 30in /  1014.9hPa Calm     97% 0in /  0.0mm 0 W/m2
00:21 46.8 °F /  8.2 °C 46 °F /  7.8 °C 30in /  1014.9hPa Calm     97% 0in /  0.0mm 0 W/m2
00:26 46.6 °F /  8.1 °C 45.9 °F /  7.7 °C 30in /  1014.9hPa Calm     97% 0in /  0.0mm 0 W/m2
00:31 46.6 °F /  8.1 °C 45.9 °F /  7.7 °C 30in /  1014.9hPa Calm     97% 0in /  0.0mm 0 W/m2
00:36 46.6 °F /  8.1 °C 45.9 °F /  7.7 °C 30in /  1014.9hPa Calm     97% 0in /  0.0mm 0 W/m2
00:41 46.4 °F /  8 °C 45.7 °F /  7.6 °C 30in /  1014.9hPa Calm     97% 0in /  0.0mm 0 W/m2
00:46 46.4 °F /  8 °C 45.7 °F /  7.6 °C 30in /  1014.9hPa Calm     97% 0in /  0.0mm 0 W/m2
00:51 46.4 °F /  8 °C 45.7 °F /  7.6 °C 30in /  1014.9hPa Calm     97% 0in /  0.0mm 0 W/m2
00:56 46.4 °F /  8 °C 45.7 °F /  7.6 °C 30in /  1014.9hPa Calm     97% 0in /  0.0mm 0 W/m2
01:01 46.6 °F /  8.1 °C 45.9 °F /  7.7 °C 30in /  1014.9hPa Calm     97% 0in /  0.0mm 0 W/m2
01:06 46.8 °F /  8.2 °C 46 °F /  7.8 °C 30in /  1014.6hPa Calm     97% 0in /  0.0mm 0 W/m2
01:11 46.9 °F /  8.3 °C 46.2 °F /  7.9 °C 30in /  1014.6hPa Calm     97% 0in /  0.0mm 0 W/m2
01:16 46.8 °F /  8.2 °C 46 °F /  7.8 °C 30in /  1014.6hPa Calm     97% 0in /  0.0mm 0 W/m2
01:21 46.8 °F /  8.2 °C 46 °F /  7.8 °C 30in /  1014.6hPa Calm     97% 0in /  0.0mm 0 W/m2
01:26 46.6 °F /  8.1 °C 45.9 °F /  7.7 °C 30in /  1014.6hPa Calm     97% 0in /  0.0mm 0 W/m2
01:32 46.6 °F /  8.1 °C 45.9 °F /  7.7 °C 30in /  1014.6hPa Calm     97% 0in /  0.0mm 0 W/m2
01:37 46.6 °F /  8.1 °C 45.9 °F /  7.7 °C 30in /  1014.6hPa Calm     97% 0in /  0.0mm 0 W/m2
01:42 46.4 °F /  8 °C 45.7 °F /  7.6 °C 30in /  1014.6hPa Calm     97% 0in /  0.0mm 0 W/m2
01:47 46.8 °F /  8.2 °C 46 °F /  7.8 °C 30in /  1014.6hPa Calm     97% 0in /  0.0mm 0 W/m2
01:52 46.9 °F /  8.3 °C 46.2 °F /  7.9 °C 30in /  1014.6hPa Calm     97% 0in /  0.0mm 0 W/m2
01:57 46.9 °F /  8.3 °C 46.2 °F /  7.9 °C 30in /  1014.2hPa Calm     97% 0in /  0.0mm 0 W/m2
02:02 46.9 °F /  8.3 °C 46.2 °F /  7.9 °C 30in /  1014.2hPa Calm     97% 0in /  0.0mm 0 W/m2
02:07 46.9 °F /  8.3 °C 46.2 °F /  7.9 °C 30in /  1014.2hPa Calm     97% 0in /  0.0mm 0 W/m2
02:12 46.9 °F /  8.3 °C 46.2 °F /  7.9 °C 30in /  1014.2hPa Calm     97% 0in /  0.0mm 0 W/m2
02:17 46.9 °F /  8.3 °C 46.2 °F /  7.9 °C 30in /  1014.2hPa Calm     97% 0in /  0.0mm 0 W/m2
02:22 46.8 °F /  8.2 °C 46 °F /  7.8 °C 30in /  1014.2hPa Calm     97% 0in /  0.0mm 0 W/m2
02:27 46.8 °F /  8.2 °C 46 °F /  7.8 °C 30in /  1014.2hPa Calm     97% 0in /  0.0mm 0 W/m2
02:32 46.6 °F /  8.1 °C 45.9 °F /  7.7 °C 30in /  1014.2hPa Calm     97% 0in /  0.0mm 0 W/m2
02:37 46.6 °F /  8.1 °C 45.9 °F /  7.7 °C 30in /  1014.2hPa Calm     97% 0in /  0.0mm 0 W/m2
02:42 46.6 °F /  8.1 °C 45.9 °F /  7.7 °C 29.9in /  1013.9hPa Calm     97% 0in /  0.0mm 0 W/m2
02:47 46.6 °F /  8.1 °C 45.9 °F /  7.7 °C 29.9in /  1013.9hPa Calm     97% 0in /  0.0mm 0 W/m2
02:52 46.4 °F /  8 °C 45.7 °F /  7.6 °C 29.9in /  1013.9hPa Calm     97% 0in /  0.0mm 0 W/m2
02:57 46.2 °F /  7.9 °C 45.5 °F /  7.5 °C 29.9in /  1013.9hPa Calm     97% 0in /  0.0mm 0 W/m2
03:02 46 °F /  7.8 °C 45.3 °F /  7.4 °C 29.9in /  1013.9hPa Calm     97% 0in /  0.0mm 0 W/m2
03:07 46 °F /  7.8 °C 45.3 °F /  7.4 °C 30in /  1014.2hPa Calm     97% 0in /  0.0mm 0 W/m2
03:12 46 °F /  7.8 °C 45.3 °F /  7.4 °C 29.9in /  1013.9hPa Calm     97% 0in /  0.0mm 0 W/m2
03:17 45.9 °F /  7.7 °C 45.1 °F /  7.3 °C 29.9in /  1013.9hPa Calm     97% 0in /  0.0mm 0 W/m2
03:22 45.9 °F /  7.7 °C 45.1 °F /  7.3 °C 29.9in /  1013.9hPa Calm     97% 0in /  0.0mm 0 W/m2
03:27 46 °F /  7.8 °C 45.3 °F /  7.4 °C 29.9in /  1013.9hPa Calm     97% 0in /  0.0mm 0 W/m2
03:32 46 °F /  7.8 °C 45.3 °F /  7.4 °C 29.9in /  1013.5hPa Calm     97% 0in /  0.0mm 0 W/m2
03:37 46 °F /  7.8 °C 45.3 °F /  7.4 °C 29.9in /  1013.9hPa Calm     97% 0in /  0.0mm 0 W/m2
03:42 46.2 °F /  7.9 °C 45.5 °F /  7.5 °C 29.9in /  1013.9hPa Calm     97% 0in /  0.0mm 0 W/m2
03:47 46.2 °F /  7.9 °C 45.5 °F /  7.5 °C 29.9in /  1013.9hPa Calm     97% 0in /  0.0mm 0 W/m2
03:52 46.2 °F /  7.9 °C 45.5 °F /  7.5 °C 29.9in /  1013.9hPa Calm     97% 0in /  0.0mm 0 W/m2
03:57 46 °F /  7.8 °C 45.3 °F /  7.4 °C 29.9in /  1013.9hPa Calm     97% 0in /  0.0mm 0 W/m2
04:02 46 °F /  7.8 °C 45.3 °F /  7.4 °C 29.9in /  1013.9hPa Calm     97% 0in /  0.0mm 0 W/m2
04:07 46 °F /  7.8 °C 45.3 °F /  7.4 °C 29.9in /  1013.9hPa Calm     97% 0in /  0.0mm 0 W/m2
04:12 45.9 °F /  7.7 °C 45.1 °F /  7.3 °C 29.9in /  1013.9hPa Calm     97% 0in /  0.0mm 0 W/m2
04:17 45.7 °F /  7.6 °C 45 °F /  7.2 °C 29.9in /  1013.9hPa Calm     97% 0in /  0.0mm 0 W/m2
04:22 45.7 °F /  7.6 °C 45 °F /  7.2 °C 29.9in /  1013.9hPa Calm     97% 0.01in /  0.2mm 0 W/m2
04:27 45.9 °F /  7.7 °C 45.1 °F /  7.3 °C 29.9in /  1013.5hPa ESE 2mph /  3.2km/h 3mph /  4.8km/h 97% 0.01in /  0.2mm 0 W/m2
04:32 46.2 °F /  7.9 °C 45.5 °F /  7.5 °C 29.9in /  1013.5hPa Calm     97% 0.01in /  0.2mm 0 W/m2
04:37 46.2 °F /  7.9 °C 45.5 °F /  7.5 °C 29.9in /  1013.5hPa Calm   1mph /  1.6km/h 97% 0.01in /  0.2mm 0 W/m2
04:42 46.2 °F /  7.9 °C 45.5 °F /  7.5 °C 29.9in /  1013.5hPa Calm     97% 0.01in /  0.2mm 0 W/m2
04:47 46 °F /  7.8 °C 45.3 °F /  7.4 °C 29.9in /  1013.5hPa Calm     97% 0.01in /  0.2mm 0 W/m2
04:52 45.9 °F /  7.7 °C 45.1 °F /  7.3 °C 29.9in /  1013.5hPa Calm     97% 0.01in /  0.2mm 0 W/m2
04:57 45.7 °F /  7.6 °C 45 °F /  7.2 °C 29.9in /  1013.5hPa SW 2mph /  3.2km/h 3mph /  4.8km/h 97% 0.01in /  0.2mm 0 W/m2
05:02 45.7 °F /  7.6 °C 45 °F /  7.2 °C 29.9in /  1013.5hPa Calm     97% 0.01in /  0.2mm 0 W/m2
05:07 45.5 °F /  7.5 °C 44.8 °F /  7.1 °C 29.9in /  1013.5hPa Calm   3mph /  4.8km/h 97% 0.01in /  0.2mm 0 W/m2
05:12 45.5 °F /  7.5 °C 44.8 °F /  7.1 °C 29.9in /  1013.5hPa Calm     97% 0.01in /  0.2mm 0 W/m2
05:17 45.3 °F /  7.4 °C 44.6 °F /  7 °C 29.9in /  1013.5hPa Calm     97% 0in /  0.0mm 0 W/m2
05:22 45.3 °F /  7.4 °C 44.6 °F /  7 °C 29.9in /  1013.5hPa Calm     97% 0in /  0.0mm 0 W/m2
05:27 45.5 °F /  7.5 °C 44.8 °F /  7.1 °C 29.9in /  1013.5hPa Calm     97% 0in /  0.0mm 0 W/m2
05:32 45.7 °F /  7.6 °C 45 °F /  7.2 °C 29.9in /  1013.5hPa Calm     97% 0in /  0.0mm 0 W/m2
05:37 45.7 °F /  7.6 °C 45 °F /  7.2 °C 29.9in /  1013.5hPa Calm     97% 0in /  0.0mm 0 W/m2
05:42 45.7 °F /  7.6 °C 45 °F /  7.2 °C 29.9in /  1013.5hPa Calm     97% 0in /  0.0mm 0 W/m2
05:47 45.7 °F /  7.6 °C 45 °F /  7.2 °C 29.9in /  1013.5hPa Calm     97% 0in /  0.0mm 0 W/m2
05:52 45.7 °F /  7.6 °C 45 °F /  7.2 °C 29.9in /  1013.5hPa Calm     97% 0in /  0.0mm 0 W/m2
05:57 45.7 °F /  7.6 °C 45 °F /  7.2 °C 29.9in /  1013.2hPa Calm     97% 0in /  0.0mm 0 W/m2
06:02 45.5 °F /  7.5 °C 44.8 °F /  7.1 °C 29.9in /  1013.2hPa Calm     97% 0in /  0.0mm 0 W/m2
06:07 45.3 °F /  7.4 °C 44.6 °F /  7 °C 29.9in /  1013.2hPa Calm     97% 0in /  0.0mm 0 W/m2
06:13 45.3 °F /  7.4 °C 44.6 °F /  7 °C 29.9in /  1013.2hPa Calm     97% 0in /  0.0mm 0 W/m2
06:18 45.3 °F /  7.4 °C 44.6 °F /  7 °C 29.9in /  1013.2hPa Calm     97% 0in /  0.0mm 0 W/m2
06:23 45.3 °F /  7.4 °C 44.6 °F /  7 °C 29.9in /  1013.2hPa Calm     97% 0in /  0.0mm 0 W/m2
06:28 45.7 °F /  7.6 °C 45 °F /  7.2 °C 29.9in /  1013.2hPa Calm     97% 0in /  0.0mm 0 W/m2
06:33 45.7 °F /  7.6 °C 45 °F /  7.2 °C 29.9in /  1013.2hPa Calm     97% 0in /  0.0mm 0 W/m2
06:38 45.9 °F /  7.7 °C 45.1 °F /  7.3 °C 29.9in /  1013.2hPa Calm     97% 0in /  0.0mm 0 W/m2
06:43 45.9 °F /  7.7 °C 45.1 °F /  7.3 °C 29.9in /  1012.9hPa Calm     97% 0in /  0.0mm 0 W/m2
06:48 46 °F /  7.8 °C 45.3 °F /  7.4 °C 29.9in /  1012.9hPa Calm     97% 0in /  0.0mm 0 W/m2
06:53 46 °F /  7.8 °C 45.3 °F /  7.4 °C 29.9in /  1012.9hPa Calm     97% 0in /  0.0mm 0 W/m2
06:58 46 °F /  7.8 °C 45.3 °F /  7.4 °C 29.9in /  1012.9hPa Calm     97% 0in /  0.0mm 0 W/m2
07:03 46 °F /  7.8 °C 45.3 °F /  7.4 °C 29.9in /  1012.9hPa Calm     97% 0in /  0.0mm 0 W/m2
07:08 46 °F /  7.8 °C 45.3 °F /  7.4 °C 29.9in /  1012.9hPa Calm     97% 0in /  0.0mm 0 W/m2
07:13 46 °F /  7.8 °C 45.3 °F /  7.4 °C 29.9in /  1012.9hPa Calm     97% 0in /  0.0mm 0 W/m2
07:18 46.2 °F /  7.9 °C 45.7 °F /  7.6 °C 29.9in /  1012.9hPa Calm     98% 0in /  0.0mm 0 W/m2
07:23 46.4 °F /  8 °C 45.9 °F /  7.7 °C 29.9in /  1012.5hPa Calm     98% 0in /  0.0mm 0 W/m2
07:28 46.6 °F /  8.1 °C 46 °F /  7.8 °C 29.9in /  1012.5hPa Calm     98% 0in /  0.0mm 0 W/m2
07:33 46.6 °F /  8.1 °C 46 °F /  7.8 °C 29.9in /  1012.5hPa Calm     98% 0in /  0.0mm 0 W/m2
07:38 46.8 °F /  8.2 °C 46.2 °F /  7.9 °C 29.9in /  1012.5hPa Calm     98% 0in /  0.0mm 0 W/m2
07:43 46.8 °F /  8.2 °C 46.2 °F /  7.9 °C 29.9in /  1012.5hPa WSW 2mph /  3.2km/h 2mph /  3.2km/h 98% 0in /  0.0mm 0 W/m2
07:48 46.8 °F /  8.2 °C 46.2 °F /  7.9 °C 29.9in /  1012.5hPa WSW 0.9mph /  1.4km/h 1mph /  1.6km/h 98% 0in /  0.0mm 0 W/m2
07:53 46.9 °F /  8.3 °C 46.4 °F /  8 °C 29.9in /  1012.5hPa Calm     98% 0in /  0.0mm 0 W/m2
07:58 46.9 °F /  8.3 °C 46.4 °F /  8 °C 29.9in /  1012.5hPa Calm     98% 0in /  0.0mm 5 W/m2
08:03 46.9 °F /  8.3 °C 46.4 °F /  8 °C 29.9in /  1012.5hPa Calm     98% 0in /  0.0mm 7 W/m2
08:08 46.9 °F /  8.3 °C 46.4 °F /  8 °C 29.9in /  1012.5hPa WSW 0.9mph /  1.4km/h 2mph /  3.2km/h 98% 0in /  0.0mm 7 W/m2
08:13 46.9 °F /  8.3 °C 46.4 °F /  8 °C 29.9in /  1012.2hPa Calm     98% 0in /  0.0mm 9 W/m2
08:18 46.8 °F /  8.2 °C 46.2 °F /  7.9 °C 29.9in /  1012.2hPa Calm   2mph /  3.2km/h 98% 0in /  0.0mm 11 W/m2
08:23 46.8 °F /  8.2 °C 46 °F /  7.8 °C 29.9in /  1012.2hPa Calm     97% 0in /  0.0mm 12 W/m2
08:28 46.8 °F /  8.2 °C 46 °F /  7.8 °C 29.9in /  1011.9hPa Calm   1mph /  1.6km/h 97% 0in /  0.0mm 14 W/m2
08:33 46.8 °F /  8.2 °C 46.2 °F /  7.9 °C 29.9in /  1011.9hPa Calm   1mph /  1.6km/h 98% 0in /  0.0mm 18 W/m2
08:38 46.9 °F /  8.3 °C 46.4 °F /  8 °C 29.9in /  1011.9hPa Calm     98% 0in /  0.0mm 23 W/m2
08:43 46.9 °F /  8.3 °C 46.4 °F /  8 °C 29.9in /  1011.9hPa Calm     98% 0in /  0.0mm 28 W/m2
08:48 46.9 °F /  8.3 °C 46.4 °F /  8 °C 29.9in /  1011.9hPa Calm   1mph /  1.6km/h 98% 0in /  0.0mm 33 W/m2
08:53 47.1 °F /  8.4 °C 46.6 °F /  8.1 °C 29.9in /  1011.5hPa WSW 0.9mph /  1.4km/h 1mph /  1.6km/h 98% 0in /  0.0mm 32 W/m2
08:58 47.5 °F /  8.6 °C 46.9 °F /  8.3 °C 29.9in /  1011.5hPa Calm     98% 0in /  0.0mm 30 W/m2
09:03 47.7 °F /  8.7 °C 47.1 °F /  8.4 °C 29.9in /  1011.5hPa Calm   1mph /  1.6km/h 98% 0in /  0.0mm 30 W/m2
09:08 47.5 °F /  8.6 °C 46.9 °F /  8.3 °C 29.9in /  1011.2hPa Calm   2mph /  3.2km/h 98% 0in /  0.0mm 37 W/m2
09:13 47.7 °F /  8.7 °C 47.1 °F /  8.4 °C 29.9in /  1011.2hPa Calm     98% 0in /  0.0mm 47 W/m2
09:18 48 °F /  8.9 °C 47.5 °F /  8.6 °C 29.9in /  1011.2hPa NNE 0.9mph /  1.4km/h 3mph /  4.8km/h 98% 0in /  0.0mm 44 W/m2
09:23 48.7 °F /  9.3 °C 48.2 °F /  9 °C 29.9in /  1011.2hPa Calm   2mph /  3.2km/h 98% 0in /  0.0mm 33 W/m2
09:28 48.7 °F /  9.3 °C 48.2 °F /  9 °C 29.9in /  1011.5hPa Calm   2mph /  3.2km/h 98% 0in /  0.0mm 30 W/m2
09:33 49.1 °F /  9.5 °C 48.6 °F /  9.2 °C 29.9in /  1011.2hPa NE 6mph /  9.7km/h 7mph /  11.3km/h 98% 0in /  0.0mm 35 W/m2
09:38 50 °F /  10 °C 49.5 °F /  9.7 °C 29.9in /  1011.2hPa East 4mph /  6.4km/h 11mph /  17.7km/h 98% 0in /  0.0mm 32 W/m2
09:43 50.5 °F /  10.3 °C 50 °F /  10 °C 29.9in /  1011.2hPa NE 2mph /  3.2km/h 6mph /  9.7km/h 98% 0in /  0.0mm 32 W/m2
09:48 50.7 °F /  10.4 °C 50.2 °F /  10.1 °C 29.9in /  1011.2hPa NE 0.9mph /  1.4km/h 11mph /  17.7km/h 98% 0in /  0.0mm 32 W/m2
09:53 50.7 °F /  10.4 °C 50.2 °F /  10.1 °C 29.9in /  1011.2hPa East 0.9mph /  1.4km/h 6mph /  9.7km/h 98% 0in /  0.0mm 35 W/m2
09:58 51.3 °F /  10.7 °C 50.7 °F /  10.4 °C 29.9in /  1011.2hPa ENE 2mph /  3.2km/h 4mph /  6.4km/h 98% 0in /  0.0mm 35 W/m2
10:03 51.4 °F /  10.8 °C 50.9 °F /  10.5 °C 29.9in /  1011.2hPa Calm   2mph /  3.2km/h 98% 0in /  0.0mm 40 W/m2
10:08 51.6 °F /  10.9 °C 51.1 °F /  10.6 °C 29.9in /  1011.2hPa ENE 2mph /  3.2km/h 3mph /  4.8km/h 98% 0in /  0.0mm 47 W/m2
10:13 52 °F /  11.1 °C 51.4 °F /  10.8 °C 29.9in /  1010.8hPa NNE 0.9mph /  1.4km/h 3mph /  4.8km/h 98% 0in /  0.0mm 58 W/m2
10:18 52.2 °F /  11.2 °C 51.6 °F /  10.9 °C 29.9in /  1010.8hPa NE 0.9mph /  1.4km/h 3mph /  4.8km/h 98% 0in /  0.0mm 67 W/m2
10:23 52.3 °F /  11.3 °C 51.8 °F /  11 °C 29.9in /  1010.8hPa WNW 2mph /  3.2km/h 3mph /  4.8km/h 98% 0in /  0.0mm 63 W/m2
10:28 52.5 °F /  11.4 °C 51.6 °F /  10.9 °C 29.9in /  1010.8hPa Calm   1mph /  1.6km/h 97% 0in /  0.0mm 62 W/m2
10:33 52.9 °F /  11.6 °C 52 °F /  11.1 °C 29.9in /  1011.2hPa Calm   3mph /  4.8km/h 97% 0in /  0.0mm 58 W/m2
10:38 52.9 °F /  11.6 °C 52 °F /  11.1 °C 29.9in /  1010.8hPa NNW 0.9mph /  1.4km/h 3mph /  4.8km/h 97% 0in /  0.0mm 62 W/m2
10:43 52.9 °F /  11.6 °C 51.8 °F /  11 °C 29.9in /  1010.8hPa East 0.9mph /  1.4km/h 2mph /  3.2km/h 96% 0in /  0.0mm 76 W/m2
10:48 53.1 °F /  11.7 °C 52 °F /  11.1 °C 29.9in /  1010.8hPa Calm   3mph /  4.8km/h 96% 0in /  0.0mm 120 W/m2
10:53 53.8 °F /  12.1 °C 52.7 °F /  11.5 °C 29.9in /  1010.8hPa ENE 2.9mph /  4.7km/h 4mph /  6.4km/h 96% 0in /  0.0mm 139 W/m2
10:58 54.3 °F /  12.4 °C 52.9 °F /  11.6 °C 29.9in /  1010.8hPa NE 0.9mph /  1.4km/h 3mph /  4.8km/h 95% 0in /  0.0mm 116 W/m2
11:03 55 °F /  12.8 °C 53.1 °F /  11.7 °C 29.9in /  1010.8hPa ESE 2mph /  3.2km/h 3mph /  4.8km/h 93% 0in /  0.0mm 116 W/m2
11:08 55.6 °F /  13.1 °C 53.2 °F /  11.8 °C 29.9in /  1010.8hPa East 2mph /  3.2km/h 3mph /  4.8km/h 92% 0in /  0.0mm 141 W/m2
11:13 55.8 °F /  13.2 °C 52.9 °F /  11.6 °C 29.8in /  1010.5hPa ENE 2mph /  3.2km/h 4mph /  6.4km/h 90% 0in /  0.0mm 105 W/m2
11:18 56.1 °F /  13.4 °C 52.9 °F /  11.6 °C 29.8in /  1010.2hPa ENE 2.9mph /  4.7km/h 7mph /  11.3km/h 89% 0in /  0.0mm 97 W/m2
11:23 56.5 °F /  13.6 °C 52.9 °F /  11.6 °C 29.8in /  1010.2hPa East 2.9mph /  4.7km/h 3mph /  4.8km/h 88% 0in /  0.0mm 91 W/m2
11:28 56.8 °F /  13.8 °C 53.1 °F /  11.7 °C 29.8in /  1010.2hPa NE 4mph /  6.4km/h 8mph /  12.9km/h 87% 0in /  0.0mm 95 W/m2
11:33 57 °F /  13.9 °C 52.9 °F /  11.6 °C 29.8in /  1010.2hPa WNW 2mph /  3.2km/h 3mph /  4.8km/h 86% 0in /  0.0mm 130 W/m2
11:38 57.4 °F /  14.1 °C 52.9 °F /  11.6 °C 29.8in /  1009.8hPa ESE 0.9mph /  1.4km/h 10mph /  16.1km/h 85% 0in /  0.0mm 142 W/m2
11:43 57.9 °F /  14.4 °C 53.1 °F /  11.7 °C 29.8in /  1009.5hPa ESE 4mph /  6.4km/h 6mph /  9.7km/h 84% 0in /  0.0mm 123 W/m2
11:48 58.3 °F /  14.6 °C 52.9 °F /  11.6 °C 29.8in /  1009.5hPa ENE 2mph /  3.2km/h 5mph /  8km/h 82% 0in /  0.0mm 120 W/m2
11:53 58.6 °F /  14.8 °C 52.9 °F /  11.6 °C 29.8in /  1009.5hPa NE 6mph /  9.7km/h 9mph /  14.5km/h 81% 0in /  0.0mm 125 W/m2
11:58 58.6 °F /  14.8 °C 52.5 °F /  11.4 °C 29.8in /  1009.5hPa SE 4.9mph /  7.9km/h 11mph /  17.7km/h 80% 0in /  0.0mm 153 W/m2
12:03 58.8 °F /  14.9 °C 52.7 °F /  11.5 °C 29.8in /  1009.1hPa East 2.9mph /  4.7km/h 9mph /  14.5km/h 80% 0in /  0.0mm 144 W/m2
12:08 58.8 °F /  14.9 °C 52.7 °F /  11.5 °C 29.8in /  1009.1hPa East 2.9mph /  4.7km/h 11mph /  17.7km/h 80% 0in /  0.0mm 121 W/m2
12:13 58.8 °F /  14.9 °C 52.7 °F /  11.5 °C 29.8in /  1008.8hPa ENE 8.9mph /  14.3km/h 9mph /  14.5km/h 80% 0in /  0.0mm 121 W/m2
12:18 59 °F /  15 °C 52.9 °F /  11.6 °C 29.8in /  1008.8hPa SE 2.9mph /  4.7km/h 10mph /  16.1km/h 80% 0in /  0.0mm 144 W/m2
12:23 59.2 °F /  15.1 °C 53.1 °F /  11.7 °C 29.8in /  1008.5hPa East 4.9mph /  7.9km/h 11mph /  17.7km/h 80% 0in /  0.0mm 183 W/m2
12:28 59.2 °F /  15.1 °C 53.1 °F /  11.7 °C 29.8in /  1008.5hPa East 6mph /  9.7km/h 12mph /  19.3km/h 80% 0in /  0.0mm 113 W/m2
12:33 59.4 °F /  15.2 °C 52.9 °F /  11.6 °C 29.8in /  1008.5hPa NE 4.9mph /  7.9km/h 12mph /  19.3km/h 79% 0in /  0.0mm 79 W/m2
12:38 59.5 °F /  15.3 °C 52.7 °F /  11.5 °C 29.8in /  1008.5hPa ENE 2mph /  3.2km/h 10mph /  16.1km/h 78% 0in /  0.0mm 86 W/m2
12:43 59.7 °F /  15.4 °C 52.9 °F /  11.6 °C 29.8in /  1008.1hPa ESE 2.9mph /  4.7km/h 8mph /  12.9km/h 78% 0in /  0.0mm 69 W/m2
12:48 59.9 °F /  15.5 °C 53.1 °F /  11.7 °C 29.8in /  1007.8hPa ENE 2mph /  3.2km/h 10mph /  16.1km/h 78% 0in /  0.0mm 95 W/m2
12:53 60.1 °F /  15.6 °C 52.9 °F /  11.6 °C 29.8in /  1007.8hPa SSE 0.9mph /  1.4km/h 15mph /  24.1km/h 77% 0in /  0.0mm 118 W/m2
12:58 60.1 °F /  15.6 °C 52.9 °F /  11.6 °C 29.8in /  1007.8hPa ENE 2mph /  3.2km/h 14mph /  22.5km/h 77% 0in /  0.0mm 130 W/m2
13:03 60.3 °F /  15.7 °C 53.1 °F /  11.7 °C 29.8in /  1007.5hPa ESE 2mph /  3.2km/h 15mph /  24.1km/h 77% 0in /  0.0mm 127 W/m2
13:08 60.4 °F /  15.8 °C 53.2 °F /  11.8 °C 29.8in /  1007.5hPa ESE 2mph /  3.2km/h 6mph /  9.7km/h 77% 0in /  0.0mm 132 W/m2
13:13 60.4 °F /  15.8 °C 53.2 °F /  11.8 °C 29.8in /  1007.5hPa East 0.9mph /  1.4km/h 8mph /  12.9km/h 77% 0in /  0.0mm 139 W/m2
13:18 60.6 °F /  15.9 °C 53.4 °F /  11.9 °C 29.8in /  1007.5hPa East 4mph /  6.4km/h 7mph /  11.3km/h 77% 0in /  0.0mm 137 W/m2
13:23 60.6 °F /  15.9 °C 53.1 °F /  11.7 °C 29.8in /  1007.5hPa East 2.9mph /  4.7km/h 10mph /  16.1km/h 76% 0in /  0.0mm 132 W/m2
13:28 60.6 °F /  15.9 °C 53.1 °F /  11.7 °C 29.7in /  1007.1hPa East 2.9mph /  4.7km/h 10mph /  16.1km/h 76% 0in /  0.0mm 130 W/m2
13:33 60.6 °F /  15.9 °C 53.1 °F /  11.7 °C 29.7in /  1007.1hPa ESE 6.9mph /  11.1km/h 11mph /  17.7km/h 76% 0in /  0.0mm 130 W/m2
13:38 60.6 °F /  15.9 °C 52.7 °F /  11.5 °C 29.7in /  1007.1hPa East 2.9mph /  4.7km/h 8mph /  12.9km/h 75% 0in /  0.0mm 141 W/m2
13:43 60.8 °F /  16 °C 53.2 °F /  11.8 °C 29.7in /  1007.1hPa East 2mph /  3.2km/h 11mph /  17.7km/h 76% 0in /  0.0mm 144 W/m2
13:48 61 °F /  16.1 °C 53.1 °F /  11.7 °C 29.7in /  1007.1hPa ESE 4mph /  6.4km/h 7mph /  11.3km/h 75% 0in /  0.0mm 128 W/m2
13:53 61 °F /  16.1 °C 53.1 °F /  11.7 °C 29.7in /  1006.8hPa East 6mph /  9.7km/h 8mph /  12.9km/h 75% 0in /  0.0mm 118 W/m2
13:58 61 °F /  16.1 °C 53.1 °F /  11.7 °C 29.7in /  1006.8hPa NE 4mph /  6.4km/h 8mph /  12.9km/h 75% 0in /  0.0mm 121 W/m2
14:03 61 °F /  16.1 °C 53.1 °F /  11.7 °C 29.7in /  1006.4hPa ENE 4mph /  6.4km/h 12mph /  19.3km/h 75% 0in /  0.0mm 113 W/m2
14:08 61 °F /  16.1 °C 53.1 °F /  11.7 °C 29.7in /  1006.4hPa East 4mph /  6.4km/h 7mph /  11.3km/h 75% 0in /  0.0mm 98 W/m2
14:14 61 °F /  16.1 °C 53.1 °F /  11.7 °C 29.7in /  1006.4hPa ENE 2.9mph /  4.7km/h 12mph /  19.3km/h 75% 0in /  0.0mm 98 W/m2
14:19 61 °F /  16.1 °C 53.1 °F /  11.7 °C 29.7in /  1006.4hPa NE 2mph /  3.2km/h 7mph /  11.3km/h 75% 0in /  0.0mm 90 W/m2
14:24 61 °F /  16.1 °C 53.4 °F /  11.9 °C 29.7in /  1006.4hPa ENE 0.9mph /  1.4km/h 12mph /  19.3km/h 76% 0in /  0.0mm 72 W/m2
14:29 61 °F /  16.1 °C 53.4 °F /  11.9 °C 29.7in /  1006.1hPa East 2mph /  3.2km/h 8mph /  12.9km/h 76% 0in /  0.0mm 65 W/m2
14:34 60.8 °F /  16 °C 53.2 °F /  11.8 °C 29.7in /  1006.1hPa NE 2mph /  3.2km/h 5mph /  8km/h 76% 0in /  0.0mm 60 W/m2
14:39 60.8 °F /  16 °C 53.6 °F /  12 °C 29.7in /  1006.1hPa SE 4.9mph /  7.9km/h 5mph /  8km/h 77% 0in /  0.0mm 54 W/m2
14:44 60.6 °F /  15.9 °C 53.1 °F /  11.7 °C 29.7in /  1006.1hPa East 2.9mph /  4.7km/h 3mph /  4.8km/h 76% 0in /  0.0mm 49 W/m2
14:49 60.6 °F /  15.9 °C 53.1 °F /  11.7 °C 29.7in /  1006.1hPa ENE 2mph /  3.2km/h 4mph /  6.4km/h 76% 0in /  0.0mm 40 W/m2
14:54 60.6 °F /  15.9 °C 53.1 °F /  11.7 °C 29.7in /  1006.1hPa Calm   1mph /  1.6km/h 76% 0in /  0.0mm 35 W/m2
14:59 60.4 °F /  15.8 °C 53.2 °F /  11.8 °C 29.7in /  1006.1hPa North 0.9mph /  1.4km/h 2mph /  3.2km/h 77% 0in /  0.0mm 35 W/m2
15:04 60.3 °F /  15.7 °C 53.1 °F /  11.7 °C 29.7in /  1006.1hPa Calm   2mph /  3.2km/h 77% 0in /  0.0mm 28 W/m2
15:09 60.1 °F /  15.6 °C 53.2 °F /  11.8 °C 29.7in /  1006.1hPa ENE 0.9mph /  1.4km/h 6mph /  9.7km/h 78% 0in /  0.0mm 37 W/m2
15:14 59.9 °F /  15.5 °C 52.7 °F /  11.5 °C 29.7in /  1006.1hPa ESE 0.9mph /  1.4km/h 2mph /  3.2km/h 77% 0in /  0.0mm 35 W/m2
15:19 60.1 °F /  15.6 °C 52.5 °F /  11.4 °C 29.7in /  1006.1hPa North 0.9mph /  1.4km/h 4mph /  6.4km/h 76% 0in /  0.0mm 32 W/m2
15:24 60.4 °F /  15.8 °C 52.5 °F /  11.4 °C 29.7in /  1005.8hPa East 2mph /  3.2km/h 4mph /  6.4km/h 75% 0in /  0.0mm 37 W/m2
15:29 60.8 °F /  16 °C 52.2 °F /  11.2 °C 29.7in /  1006.1hPa NNE 2.9mph /  4.7km/h 3mph /  4.8km/h 73% 0in /  0.0mm 30 W/m2
15:34 61.2 °F /  16.2 °C 52 °F /  11.1 °C 29.7in /  1005.8hPa ENE 4.9mph /  7.9km/h 5mph /  8km/h 72% 0in /  0.0mm 19 W/m2
15:39 61.5 °F /  16.4 °C 52 °F /  11.1 °C 29.7in /  1006.1hPa ENE 4mph /  6.4km/h 6mph /  9.7km/h 71% 0in /  0.0mm 18 W/m2
15:44 61.7 °F /  16.5 °C 51.8 °F /  11 °C 29.7in /  1006.1hPa NE 2.9mph /  4.7km/h 8mph /  12.9km/h 70% 0in /  0.0mm 12 W/m2
15:49 62.1 °F /  16.7 °C 52.2 °F /  11.2 °C 29.7in /  1005.8hPa NNE 4mph /  6.4km/h 4mph /  6.4km/h 70% 0in /  0.0mm 12 W/m2
15:54 62.1 °F /  16.7 °C 52.2 °F /  11.2 °C 29.7in /  1005.8hPa NNE 0.9mph /  1.4km/h 5mph /  8km/h 70% 0in /  0.0mm 11 W/m2
15:59 62.1 °F /  16.7 °C 52.2 °F /  11.2 °C 29.7in /  1005.8hPa WNW 2.9mph /  4.7km/h 8mph /  12.9km/h 70% 0in /  0.0mm 7 W/m2
16:04 61.9 °F /  16.6 °C 52.3 °F /  11.3 °C 29.7in /  1006.1hPa East 0.9mph /  1.4km/h 4mph /  6.4km/h 71% 0in /  0.0mm 7 W/m2
16:09 61.9 °F /  16.6 °C 52 °F /  11.1 °C 29.7in /  1005.8hPa North 2.9mph /  4.7km/h 5mph /  8km/h 70% 0in /  0.0mm 5 W/m2
16:14 61.9 °F /  16.6 °C 52.3 °F /  11.3 °C 29.7in /  1005.8hPa NW 2.9mph /  4.7km/h 3mph /  4.8km/h 71% 0in /  0.0mm 5 W/m2
16:19 62.1 °F /  16.7 °C 52.2 °F /  11.2 °C 29.7in /  1006.1hPa NNE 2mph /  3.2km/h 3mph /  4.8km/h 70% 0in /  0.0mm 0 W/m2
16:24 61.9 °F /  16.6 °C 52.3 °F /  11.3 °C 29.7in /  1006.1hPa NNE 2.9mph /  4.7km/h 5mph /  8km/h 71% 0in /  0.0mm 0 W/m2
16:29 61.9 °F /  16.6 °C 52.7 °F /  11.5 °C 29.7in /  1006.1hPa NNE 2mph /  3.2km/h 4mph /  6.4km/h 72% 0in /  0.0mm 0 W/m2
16:34 61.3 °F /  16.3 °C 53.1 °F /  11.7 °C 29.7in /  1006.1hPa NE 0.9mph /  1.4km/h 7mph /  11.3km/h 74% 0.01in /  0.2mm 0 W/m2
16:39 61 °F /  16.1 °C 53.4 °F /  11.9 °C 29.7in /  1006.1hPa NNW 2.9mph /  4.7km/h 4mph /  6.4km/h 76% 0.01in /  0.2mm 0 W/m2
16:44 60.3 °F /  15.7 °C 53.4 °F /  11.9 °C 29.7in /  1005.8hPa Calm   9mph /  14.5km/h 78% 0.02in /  0.5mm 0 W/m2
16:49 59.5 °F /  15.3 °C 53.8 °F /  12.1 °C 29.7in /  1005.8hPa NE 2.9mph /  4.7km/h 6mph /  9.7km/h 81% 0.03in /  0.8mm 0 W/m2
16:54 59.2 °F /  15.1 °C 53.6 °F /  12 °C 29.7in /  1005.8hPa WSW 0.9mph /  1.4km/h 9mph /  14.5km/h 82% 0.04in /  1.0mm 0 W/m2
16:59 58.5 °F /  14.7 °C 53.6 °F /  12 °C 29.7in /  1005.8hPa NNE 4mph /  6.4km/h 5mph /  8km/h 84% 0.06in /  1.5mm 0 W/m2
17:04 58.1 °F /  14.5 °C 54 °F /  12.2 °C 29.7in /  1005.8hPa Calm   3mph /  4.8km/h 86% 0.06in /  1.5mm 0 W/m2
17:09 57.7 °F /  14.3 °C 53.6 °F /  12 °C 29.7in /  1005.8hPa ENE 2.9mph /  4.7km/h 4mph /  6.4km/h 86% 0.06in /  1.5mm 0 W/m2
17:14 57.6 °F /  14.2 °C 53.8 °F /  12.1 °C 29.7in /  1005.8hPa NE 2mph /  3.2km/h 3mph /  4.8km/h 87% 0.07in /  1.8mm 0 W/m2
17:19 57.4 °F /  14.1 °C 53.8 °F /  12.1 °C 29.7in /  1005.8hPa ENE 2mph /  3.2km/h 4mph /  6.4km/h 88% 0.07in /  1.8mm 0 W/m2
17:24 57.2 °F /  14 °C 53.6 °F /  12 °C 29.7in /  1005.4hPa NE 2mph /  3.2km/h 4mph /  6.4km/h 88% 0.07in /  1.8mm 0 W/m2
17:29 57.2 °F /  14 °C 54 °F /  12.2 °C 29.7in /  1005.4hPa East 2.9mph /  4.7km/h 3mph /  4.8km/h 89% 0.07in /  1.8mm 0 W/m2
17:34 57 °F /  13.9 °C 53.8 °F /  12.1 °C 29.7in /  1005.4hPa ENE 2mph /  3.2km/h 4mph /  6.4km/h 89% 0.08in /  2.0mm 0 W/m2
17:39 57 °F /  13.9 °C 54.1 °F /  12.3 °C 29.7in /  1005.1hPa East 0.9mph /  1.4km/h 10mph /  16.1km/h 90% 0.09in /  2.3mm 0 W/m2
17:44 56.8 °F /  13.8 °C 54 °F /  12.2 °C 29.7in /  1005.1hPa ENE 4mph /  6.4km/h 9mph /  14.5km/h 90% 0.08in /  2.0mm 0 W/m2
17:49 56.8 °F /  13.8 °C 54 °F /  12.2 °C 29.7in /  1005.1hPa Calm   10mph /  16.1km/h 90% 0.09in /  2.3mm 0 W/m2
17:54 56.8 °F /  13.8 °C 54.3 °F /  12.4 °C 29.7in /  1005.1hPa ENE 2mph /  3.2km/h 8mph /  12.9km/h 91% 0.08in /  2.0mm 0 W/m2
17:59 56.7 °F /  13.7 °C 54.1 °F /  12.3 °C 29.7in /  1005.1hPa East 6mph /  9.7km/h 10mph /  16.1km/h 91% 0.07in /  1.8mm 0 W/m2
18:04 56.7 °F /  13.7 °C 54.1 °F /  12.3 °C 29.7in /  1005.1hPa NE 2mph /  3.2km/h 6mph /  9.7km/h 91% 0.06in /  1.5mm 0 W/m2
18:09 56.7 °F /  13.7 °C 54.1 °F /  12.3 °C 29.7in /  1005.4hPa NNW 2mph /  3.2km/h 5mph /  8km/h 91% 0.08in /  2.0mm 0 W/m2
18:14 56.8 °F /  13.8 °C 54.3 °F /  12.4 °C 29.7in /  1005.4hPa East 2.9mph /  4.7km/h 8mph /  12.9km/h 91% 0.08in /  2.0mm 0 W/m2
18:19 56.8 °F /  13.8 °C 54.3 °F /  12.4 °C 29.7in /  1004.7hPa NW 4mph /  6.4km/h 5mph /  8km/h 91% 0.09in /  2.3mm 0 W/m2
18:24 56.8 °F /  13.8 °C 54.3 °F /  12.4 °C 29.7in /  1005.1hPa WSW 0.9mph /  1.4km/h 8mph /  12.9km/h 91% 0.09in /  2.3mm 0 W/m2
18:29 57 °F /  13.9 °C 54.5 °F /  12.5 °C 29.7in /  1005.1hPa NNE 0.9mph /  1.4km/h 7mph /  11.3km/h 91% 0.08in /  2.0mm 0 W/m2
18:34 57 °F /  13.9 °C 54.5 °F /  12.5 °C 29.7in /  1005.1hPa NW 0.9mph /  1.4km/h 8mph /  12.9km/h 91% 0.07in /  1.8mm 0 W/m2
18:39 57 °F /  13.9 °C 54.1 °F /  12.3 °C 29.7in /  1005.1hPa SE 2.9mph /  4.7km/h 10mph /  16.1km/h 90% 0.06in /  1.5mm 0 W/m2
18:44 57 °F /  13.9 °C 54.1 °F /  12.3 °C 29.7in /  1005.4hPa NNW 0.9mph /  1.4km/h 5mph /  8km/h 90% 0.06in /  1.5mm 0 W/m2
18:49 57 °F /  13.9 °C 54.1 °F /  12.3 °C 29.7in /  1005.4hPa West 6.9mph /  11.1km/h 11mph /  17.7km/h 90% 0.04in /  1.0mm 0 W/m2
18:54 57.2 °F /  14 °C 54.3 °F /  12.4 °C 29.7in /  1005.1hPa NE 2mph /  3.2km/h 5mph /  8km/h 90% 0.04in /  1.0mm 0 W/m2
18:59 57.2 °F /  14 °C 54 °F /  12.2 °C 29.7in /  1005.1hPa NE 4mph /  6.4km/h 5mph /  8km/h 89% 0.03in /  0.8mm 0 W/m2
19:04 57.2 °F /  14 °C 54.3 °F /  12.4 °C 29.7in /  1005.4hPa ENE 8.9mph /  14.3km/h 10mph /  16.1km/h 90% 0.03in /  0.8mm 0 W/m2
19:09 57.2 °F /  14 °C 54 °F /  12.2 °C 29.7in /  1005.4hPa NW 2mph /  3.2km/h 12mph /  19.3km/h 89% 0.02in /  0.5mm 0 W/m2
19:14 57.4 °F /  14.1 °C 54.1 °F /  12.3 °C 29.7in /  1005.8hPa NE 2mph /  3.2km/h 10mph /  16.1km/h 89% 0.01in /  0.2mm 0 W/m2
19:19 57.4 °F /  14.1 °C 54.1 °F /  12.3 °C 29.7in /  1005.8hPa NNE 2mph /  3.2km/h 4mph /  6.4km/h 89% 0in /  0.0mm 0 W/m2
19:24 57.4 °F /  14.1 °C 53.8 °F /  12.1 °C 29.7in /  1006.1hPa West 6.9mph /  11.1km/h 11mph /  17.7km/h 88% 0.01in /  0.2mm 0 W/m2
19:29 57 °F /  13.9 °C 53.8 °F /  12.1 °C 29.7in /  1006.4hPa WSW 4mph /  6.4km/h 11mph /  17.7km/h 89% 0.05in /  1.3mm 0 W/m2
19:34 55.9 °F /  13.3 °C 52.7 °F /  11.5 °C 29.7in /  1006.4hPa West 4mph /  6.4km/h 13mph /  20.9km/h 89% 0.1in /  2.5mm 0 W/m2
19:39 55.4 °F /  13 °C 52.2 °F /  11.2 °C 29.7in /  1006.1hPa NW 4mph /  6.4km/h 11mph /  17.7km/h 89% 0.11in /  2.8mm 0 W/m2
19:44 54.9 °F /  12.7 °C 51.6 °F /  10.9 °C 29.7in /  1006.1hPa NE 2.9mph /  4.7km/h 11mph /  17.7km/h 89% 0.11in /  2.8mm 0 W/m2
19:49 54.5 °F /  12.5 °C 51.3 °F /  10.7 °C 29.7in /  1006.4hPa West 2.9mph /  4.7km/h 16mph /  25.7km/h 89% 0.12in /  3.0mm 0 W/m2
19:54 54.1 °F /  12.3 °C 50.7 °F /  10.4 °C 29.7in /  1006.8hPa West 8.1mph /  13km/h 18mph /  29km/h 88% 0.12in /  3.0mm 0 W/m2
19:59 54.1 °F /  12.3 °C 50.4 °F /  10.2 °C 29.7in /  1006.4hPa WNW 6.9mph /  11.1km/h 12mph /  19.3km/h 87% 0.12in /  3.0mm 0 W/m2
20:04 54 °F /  12.2 °C 50.2 °F /  10.1 °C 29.7in /  1006.1hPa NW 8.1mph /  13km/h 18mph /  29km/h 87% 0.12in /  3.0mm 0 W/m2
20:09 53.8 °F /  12.1 °C 50 °F /  10 °C 29.7in /  1006.1hPa West 2mph /  3.2km/h 6mph /  9.7km/h 87% 0.12in /  3.0mm 0 W/m2
20:15 53.6 °F /  12 °C 50.2 °F /  10.1 °C 29.7in /  1006.1hPa WNW 4mph /  6.4km/h 9mph /  14.5km/h 88% 0.12in /  3.0mm 0 W/m2
20:20 53.4 °F /  11.9 °C 50 °F /  10 °C 29.7in /  1006.1hPa North 0.9mph /  1.4km/h 3mph /  4.8km/h 88% 0.12in /  3.0mm 0 W/m2
20:25 53.4 °F /  11.9 °C 50.2 °F /  10.1 °C 29.7in /  1006.1hPa NW 2.9mph /  4.7km/h 7mph /  11.3km/h 89% 0.11in /  2.8mm 0 W/m2
20:30 53.4 °F /  11.9 °C 50.5 °F /  10.3 °C 29.7in /  1006.1hPa SE 2mph /  3.2km/h 2mph /  3.2km/h 90% 0.07in /  1.8mm 0 W/m2
20:35 53.2 °F /  11.8 °C 50.4 °F /  10.2 °C 29.7in /  1006.1hPa West 2mph /  3.2km/h 4mph /  6.4km/h 90% 0.02in /  0.5mm 0 W/m2
20:40 53.2 °F /  11.8 °C 50.4 °F /  10.2 °C 29.7in /  1006.4hPa WNW 0.9mph /  1.4km/h 3mph /  4.8km/h 90% 0.01in /  0.2mm 0 W/m2
20:45 53.2 °F /  11.8 °C 50.4 °F /  10.2 °C 29.7in /  1006.4hPa West 2.9mph /  4.7km/h 4mph /  6.4km/h 90% 0.01in /  0.2mm 0 W/m2
20:50 53.2 °F /  11.8 °C 50.7 °F /  10.4 °C 29.7in /  1006.4hPa WNW 0.9mph /  1.4km/h 4mph /  6.4km/h 91% 0in /  0.0mm 0 W/m2
20:55 53.2 °F /  11.8 °C 50.7 °F /  10.4 °C 29.7in /  1006.4hPa NNW 2.9mph /  4.7km/h 6mph /  9.7km/h 91% 0in /  0.0mm 0 W/m2
21:00 53.2 °F /  11.8 °C 50.7 °F /  10.4 °C 29.7in /  1006.4hPa Calm   2mph /  3.2km/h 91% 0in /  0.0mm 0 W/m2
21:05 53.2 °F /  11.8 °C 50.7 °F /  10.4 °C 29.7in /  1006.4hPa Calm   3mph /  4.8km/h 91% 0in /  0.0mm 0 W/m2
21:10 53.2 °F /  11.8 °C 50.7 °F /  10.4 °C 29.7in /  1006.4hPa WSW 6mph /  9.7km/h 6mph /  9.7km/h 91% 0in /  0.0mm 0 W/m2
21:15 53.2 °F /  11.8 °C 50.7 °F /  10.4 °C 29.7in /  1006.4hPa WNW 0.9mph /  1.4km/h 6mph /  9.7km/h 91% 0in /  0.0mm 0 W/m2
21:20 53.2 °F /  11.8 °C 50.7 °F /  10.4 °C 29.7in /  1006.4hPa West 0.9mph /  1.4km/h 2mph /  3.2km/h 91% 0in /  0.0mm 0 W/m2
21:25 53.2 °F /  11.8 °C 50.7 °F /  10.4 °C 29.7in /  1006.8hPa NNW 2mph /  3.2km/h 6mph /  9.7km/h 91% 0in /  0.0mm 0 W/m2
21:30 53.2 °F /  11.8 °C 50.7 °F /  10.4 °C 29.7in /  1006.8hPa WNW 2mph /  3.2km/h 3mph /  4.8km/h 91% 0in /  0.0mm 0 W/m2
21:35 53.2 °F /  11.8 °C 50.7 °F /  10.4 °C 29.7in /  1006.8hPa WNW 2.9mph /  4.7km/h 5mph /  8km/h 91% 0in /  0.0mm 0 W/m2
21:40 53.2 °F /  11.8 °C 50.7 °F /  10.4 °C 29.7in /  1006.8hPa NW 0.9mph /  1.4km/h 4mph /  6.4km/h 91% 0in /  0.0mm 0 W/m2
21:45 53.4 °F /  11.9 °C 50.9 °F /  10.5 °C 29.7in /  1006.8hPa Calm   4mph /  6.4km/h 91% 0in /  0.0mm 0 W/m2
21:50 53.4 °F /  11.9 °C 50.9 °F /  10.5 °C 29.7in /  1007.1hPa Calm   3mph /  4.8km/h 91% 0in /  0.0mm 0 W/m2
21:55 53.4 °F /  11.9 °C 50.9 °F /  10.5 °C 29.7in /  1006.8hPa NW 0.9mph /  1.4km/h 1mph /  1.6km/h 91% 0in /  0.0mm 0 W/m2
22:00 53.4 °F /  11.9 °C 50.9 °F /  10.5 °C 29.7in /  1006.8hPa North 2.9mph /  4.7km/h 5mph /  8km/h 91% 0in /  0.0mm 0 W/m2
22:05 53.4 °F /  11.9 °C 50.9 °F /  10.5 °C 29.7in /  1006.8hPa West 0.9mph /  1.4km/h 3mph /  4.8km/h 91% 0in /  0.0mm 0 W/m2
22:10 53.4 °F /  11.9 °C 50.5 °F /  10.3 °C 29.7in /  1007.1hPa NW 4mph /  6.4km/h 5mph /  8km/h 90% 0in /  0.0mm 0 W/m2
22:15 53.2 °F /  11.8 °C 50.4 °F /  10.2 °C 29.7in /  1007.1hPa NW 4mph /  6.4km/h 6mph /  9.7km/h 90% 0in /  0.0mm 0 W/m2
22:20 53.2 °F /  11.8 °C 49.8 °F /  9.9 °C 29.8in /  1007.5hPa West 6mph /  9.7km/h 13mph /  20.9km/h 88% 0in /  0.0mm 0 W/m2
22:25 53.2 °F /  11.8 °C 49.5 °F /  9.7 °C 29.8in /  1007.5hPa West 6.9mph /  11.1km/h 12mph /  19.3km/h 87% 0in /  0.0mm 0 W/m2
22:30 53.2 °F /  11.8 °C 49.1 °F /  9.5 °C 29.8in /  1007.5hPa WNW 2.9mph /  4.7km/h 9mph /  14.5km/h 86% 0in /  0.0mm 0 W/m2
22:35 53.1 °F /  11.7 °C 48.9 °F /  9.4 °C 29.8in /  1007.5hPa West 8.1mph /  13km/h 8mph /  12.9km/h 86% 0in /  0.0mm 0 W/m2
22:40 53.1 °F /  11.7 °C 48.9 °F /  9.4 °C 29.8in /  1007.5hPa West 11mph /  17.7km/h 12mph /  19.3km/h 86% 0in /  0.0mm 0 W/m2
22:45 52.9 °F /  11.6 °C 48.6 °F /  9.2 °C 29.8in /  1007.5hPa NW 4mph /  6.4km/h 9mph /  14.5km/h 85% 0in /  0.0mm 0 W/m2
22:50 52.7 °F /  11.5 °C 48.4 °F /  9.1 °C 29.8in /  1007.8hPa WSW 8.1mph /  13km/h 15mph /  24.1km/h 85% 0in /  0.0mm 0 W/m2
22:55 52.7 °F /  11.5 °C 48 °F /  8.9 °C 29.8in /  1007.8hPa West 8.9mph /  14.3km/h 11mph /  17.7km/h 84% 0in /  0.0mm 0 W/m2
23:00 52.5 °F /  11.4 °C 47.5 °F /  8.6 °C 29.8in /  1007.8hPa WNW 8.9mph /  14.3km/h 16mph /  25.7km/h 83% 0in /  0.0mm 0 W/m2
23:05 52.5 °F /  11.4 °C 47.5 °F /  8.6 °C 29.8in /  1007.8hPa WNW 8.9mph /  14.3km/h 15mph /  24.1km/h 83% 0in /  0.0mm 0 W/m2
23:10 52.3 °F /  11.3 °C 47.3 °F /  8.5 °C 29.8in /  1007.8hPa WNW 17.9mph /  28.8km/h 18mph /  29km/h 83% 0in /  0.0mm 0 W/m2
23:15 52.3 °F /  11.3 °C 46.9 °F /  8.3 °C 29.8in /  1007.8hPa West 8.1mph /  13km/h 8mph /  12.9km/h 82% 0in /  0.0mm 0 W/m2
23:20 52.2 °F /  11.2 °C 47.1 °F /  8.4 °C 29.8in /  1007.8hPa NW 4mph /  6.4km/h 18mph /  29km/h 83% 0in /  0.0mm 0 W/m2
23:25 52 °F /  11.1 °C 46.9 °F /  8.3 °C 29.8in /  1008.1hPa NW 4.9mph /  7.9km/h 10mph /  16.1km/h 83% 0in /  0.0mm 0 W/m2
23:30 51.8 °F /  11 °C 46.8 °F /  8.2 °C 29.8in /  1008.1hPa West 11mph /  17.7km/h 11mph /  17.7km/h 83% 0in /  0.0mm 0 W/m2
23:35 51.6 °F /  10.9 °C 46.6 °F /  8.1 °C 29.8in /  1008.5hPa West 6mph /  9.7km/h 11mph /  17.7km/h 83% 0in /  0.0mm 0 W/m2
23:40 51.6 °F /  10.9 °C 46.6 °F /  8.1 °C 29.8in /  1008.5hPa WNW 4mph /  6.4km/h 9mph /  14.5km/h 83% 0in /  0.0mm 0 W/m2
23:45 51.6 °F /  10.9 °C 46.6 °F /  8.1 °C 29.8in /  1008.5hPa West 6.9mph /  11.1km/h 15mph /  24.1km/h 83% 0in /  0.0mm 0 W/m2
23:50 51.6 °F /  10.9 °C 46.6 °F /  8.1 °C 29.8in /  1008.5hPa West 4mph /  6.4km/h 13mph /  20.9km/h 83% 0in /  0.0mm 0 W/m2
23:55 51.4 °F /  10.8 °C 46.8 °F /  8.2 °C 29.8in /  1008.5hPa WSW 6.9mph /  11.1km/h 15mph /  24.1km/h 84% 0in /  0.0mm 0 W/m2
Juneau County Weather
Compliments of Weather Underground - 2 mb